sensor_id;sensor_type;location;lat;lon;timestamp;pressure;altitude;pressure_sealevel;temperature;humidity
48404;BME280;34202;52.536;6.042;2023-04-15T00:01:29;101060.50;;;7.50;72.39
48404;BME280;34202;52.536;6.042;2023-04-15T00:06:32;101064.12;;;7.42;72.80
48404;BME280;34202;52.536;6.042;2023-04-15T00:11:33;101068.08;;;7.34;73.47
48404;BME280;34202;52.536;6.042;2023-04-15T00:16:33;101065.80;;;7.25;73.85
48404;BME280;34202;52.536;6.042;2023-04-15T00:21:33;101069.63;;;7.18;74.04
48404;BME280;34202;52.536;6.042;2023-04-15T00:26:33;101075.75;;;7.14;74.32
48404;BME280;34202;52.536;6.042;2023-04-15T00:31:34;101074.61;;;7.10;74.32
48404;BME280;34202;52.536;6.042;2023-04-15T00:36:35;101077.23;;;7.04;74.61
48404;BME280;34202;52.536;6.042;2023-04-15T00:41:35;101076.41;;;6.99;75.12
48404;BME280;34202;52.536;6.042;2023-04-15T00:46:38;101077.10;;;6.91;75.45
48404;BME280;34202;52.536;6.042;2023-04-15T00:51:39;101082.11;;;6.85;75.76
48404;BME280;34202;52.536;6.042;2023-04-15T00:56:39;101082.59;;;6.77;76.01
48404;BME280;34202;52.536;6.042;2023-04-15T01:01:40;101082.52;;;6.73;76.44
48404;BME280;34202;52.536;6.042;2023-04-15T01:06:40;101079.43;;;6.68;76.68
48404;BME280;34202;52.536;6.042;2023-04-15T01:11:41;101080.50;;;6.63;77.11
48404;BME280;34202;52.536;6.042;2023-04-15T01:16:42;101083.31;;;6.58;77.56
48404;BME280;34202;52.536;6.042;2023-04-15T01:21:44;101086.42;;;6.51;78.22
48404;BME280;34202;52.536;6.042;2023-04-15T01:26:45;101090.69;;;6.43;78.84
48404;BME280;34202;52.536;6.042;2023-04-15T01:31:52;101089.30;;;6.36;79.26
48404;BME280;34202;52.536;6.042;2023-04-15T01:36:52;101085.52;;;6.32;79.31
48404;BME280;34202;52.536;6.042;2023-04-15T01:41:52;101090.61;;;6.28;79.76
48404;BME280;34202;52.536;6.042;2023-04-15T01:46:53;101091.52;;;6.23;79.86
48404;BME280;34202;52.536;6.042;2023-04-15T01:51:53;101093.18;;;6.20;80.19
48404;BME280;34202;52.536;6.042;2023-04-15T01:56:54;101093.73;;;6.15;80.60
48404;BME280;34202;52.536;6.042;2023-04-15T02:01:54;101101.58;;;6.12;80.61
48404;BME280;34202;52.536;6.042;2023-04-15T02:06:55;101103.36;;;6.08;81.16
48404;BME280;34202;52.536;6.042;2023-04-15T02:11:55;101109.94;;;6.03;81.35
48404;BME280;34202;52.536;6.042;2023-04-15T02:16:56;101112.55;;;5.97;81.67
48404;BME280;34202;52.536;6.042;2023-04-15T02:21:56;101117.42;;;5.94;82.08
48404;BME280;34202;52.536;6.042;2023-04-15T02:26:56;101118.71;;;5.91;82.27
48404;BME280;34202;52.536;6.042;2023-04-15T02:31:57;101123.13;;;5.88;83.05
48404;BME280;34202;52.536;6.042;2023-04-15T02:36:57;101124.21;;;5.85;83.36
48404;BME280;34202;52.536;6.042;2023-04-15T02:41:57;101132.19;;;5.80;83.89
48404;BME280;34202;52.536;6.042;2023-04-15T02:46:59;101133.45;;;5.76;84.26
48404;BME280;34202;52.536;6.042;2023-04-15T02:51:59;101137.34;;;5.73;84.56
48404;BME280;34202;52.536;6.042;2023-04-15T02:56:59;101140.19;;;5.71;84.70
48404;BME280;34202;52.536;6.042;2023-04-15T03:02:00;101149.09;;;5.68;85.18
48404;BME280;34202;52.536;6.042;2023-04-15T03:07:01;101149.33;;;5.65;85.75
48404;BME280;34202;52.536;6.042;2023-04-15T03:12:01;101151.70;;;5.62;86.09
48404;BME280;34202;52.536;6.042;2023-04-15T03:17:02;101150.72;;;5.59;86.31
48404;BME280;34202;52.536;6.042;2023-04-15T03:22:02;101149.38;;;5.55;86.56
48404;BME280;34202;52.536;6.042;2023-04-15T03:27:02;101157.84;;;5.50;87.07
48404;BME280;34202;52.536;6.042;2023-04-15T03:32:02;101164.10;;;5.46;87.39
48404;BME280;34202;52.536;6.042;2023-04-15T03:37:04;101169.85;;;5.42;87.66
48404;BME280;34202;52.536;6.042;2023-04-15T03:42:04;101172.70;;;5.39;87.75
48404;BME280;34202;52.536;6.042;2023-04-15T03:47:04;101178.92;;;5.35;88.14
48404;BME280;34202;52.536;6.042;2023-04-15T03:52:05;101183.93;;;5.30;88.38
48404;BME280;34202;52.536;6.042;2023-04-15T03:57:05;101194.67;;;5.26;88.76
48404;BME280;34202;52.536;6.042;2023-04-15T04:02:05;101194.86;;;5.21;88.89
48404;BME280;34202;52.536;6.042;2023-04-15T04:07:06;101199.32;;;5.15;89.11
48404;BME280;34202;52.536;6.042;2023-04-15T04:12:06;101206.19;;;5.09;89.37
48404;BME280;34202;52.536;6.042;2023-04-15T04:17:07;101209.75;;;5.03;89.82
48404;BME280;34202;52.536;6.042;2023-04-15T04:22:08;101211.40;;;5.00;90.18
48404;BME280;34202;52.536;6.042;2023-04-15T04:27:08;101206.73;;;5.00;90.44
48404;BME280;34202;52.536;6.042;2023-04-15T04:32:08;101212.95;;;5.00;90.43
48404;BME280;34202;52.536;6.042;2023-04-15T04:37:09;101221.14;;;4.98;90.36
48404;BME280;34202;52.536;6.042;2023-04-15T04:42:10;101226.34;;;4.94;90.34
48404;BME280;34202;52.536;6.042;2023-04-15T04:47:10;101237.79;;;4.91;90.59
48404;BME280;34202;52.536;6.042;2023-04-15T04:52:10;101248.58;;;4.89;91.05
48404;BME280;34202;52.536;6.042;2023-04-15T04:57:11;101251.35;;;4.84;91.41
48404;BME280;34202;52.536;6.042;2023-04-15T05:02:12;101254.57;;;4.82;91.81
48404;BME280;34202;52.536;6.042;2023-04-15T05:07:12;101261.60;;;4.81;92.12
48404;BME280;34202;52.536;6.042;2023-04-15T05:12:13;101264.34;;;4.81;92.41
48404;BME280;34202;52.536;6.042;2023-04-15T05:17:14;101271.94;;;4.81;92.67
48404;BME280;34202;52.536;6.042;2023-04-15T05:22:14;101276.58;;;4.81;93.00
48404;BME280;34202;52.536;6.042;2023-04-15T05:27:14;101280.16;;;4.80;93.12
48404;BME280;34202;52.536;6.042;2023-04-15T05:32:15;101282.63;;;4.81;93.53
48404;BME280;34202;52.536;6.042;2023-04-15T05:37:16;101285.75;;;4.82;93.76
48404;BME280;34202;52.536;6.042;2023-04-15T05:42:16;101290.83;;;4.84;94.36
48404;BME280;34202;52.536;6.042;2023-04-15T05:47:16;101294.72;;;4.87;94.66
48404;BME280;34202;52.536;6.042;2023-04-15T05:52:17;101294.19;;;4.91;94.95
48404;BME280;34202;52.536;6.042;2023-04-15T05:57:17;101297.73;;;4.98;95.31
48404;BME280;34202;52.536;6.042;2023-04-15T06:02:17;101304.77;;;5.06;95.85
48404;BME280;34202;52.536;6.042;2023-04-15T06:07:18;101309.05;;;5.15;96.23
48404;BME280;34202;52.536;6.042;2023-04-15T06:12:18;101321.14;;;5.25;96.50
48404;BME280;34202;52.536;6.042;2023-04-15T06:17:18;101331.65;;;5.34;96.83
48404;BME280;34202;52.536;6.042;2023-04-15T06:22:18;101339.55;;;5.42;97.04
48404;BME280;34202;52.536;6.042;2023-04-15T06:27:19;101359.02;;;5.51;97.07
48404;BME280;34202;52.536;6.042;2023-04-15T06:32:19;101365.01;;;5.59;97.07
48404;BME280;34202;52.536;6.042;2023-04-15T06:37:20;101372.50;;;5.67;97.15
48404;BME280;34202;52.536;6.042;2023-04-15T06:42:21;101384.53;;;5.74;97.19
48404;BME280;34202;52.536;6.042;2023-04-15T06:47:21;101392.58;;;5.82;97.12
48404;BME280;34202;52.536;6.042;2023-04-15T06:52:22;101398.55;;;5.90;97.14
48404;BME280;34202;52.536;6.042;2023-04-15T06:57:22;101402.50;;;5.99;97.19
48404;BME280;34202;52.536;6.042;2023-04-15T07:02:22;101400.61;;;6.09;97.21
48404;BME280;34202;52.536;6.042;2023-04-15T07:07:22;101407.83;;;6.23;97.49
48404;BME280;34202;52.536;6.042;2023-04-15T07:12:23;101414.20;;;6.38;97.91
48404;BME280;34202;52.536;6.042;2023-04-15T07:17:23;101419.23;;;6.54;98.13
48404;BME280;34202;52.536;6.042;2023-04-15T07:22:23;101416.17;;;6.73;98.50
48404;BME280;34202;52.536;6.042;2023-04-15T07:28:09;101422.09;;;7.02;98.72
48404;BME280;34202;52.536;6.042;2023-04-15T07:33:09;101433.79;;;7.23;98.79
48404;BME280;34202;52.536;6.042;2023-04-15T07:38:10;101429.06;;;7.39;98.14
48404;BME280;34202;52.536;6.042;2023-04-15T07:43:12;101435.86;;;7.52;97.90
48404;BME280;34202;52.536;6.042;2023-04-15T07:48:13;101436.83;;;7.62;97.20
48404;BME280;34202;52.536;6.042;2023-04-15T07:53:13;101442.16;;;7.73;97.37
48404;BME280;34202;52.536;6.042;2023-04-15T07:58:13;101444.52;;;7.89;97.09
48404;BME280;34202;52.536;6.042;2023-04-15T08:03:13;101452.48;;;8.08;97.12
48404;BME280;34202;52.536;6.042;2023-04-15T08:08:14;101457.16;;;8.35;97.62
48404;BME280;34202;52.536;6.042;2023-04-15T08:13:14;101465.13;;;8.61;97.31
48404;BME280;34202;52.536;6.042;2023-04-15T08:18:15;101472.66;;;8.78;96.26
48404;BME280;34202;52.536;6.042;2023-04-15T08:28:12;101470.33;;;9.03;94.69
48404;BME280;34202;52.536;6.042;2023-04-15T08:33:12;101476.98;;;9.14;94.41
48404;BME280;34202;52.536;6.042;2023-04-15T08:38:13;101478.09;;;9.25;93.62
48404;BME280;34202;52.536;6.042;2023-04-15T08:43:23;101481.88;;;9.31;93.13
48404;BME280;34202;52.536;6.042;2023-04-15T08:48:26;101478.00;;;9.44;93.21
48404;BME280;34202;52.536;6.042;2023-04-15T08:53:28;101490.88;;;9.61;92.57
48404;BME280;34202;52.536;6.042;2023-04-15T08:58:28;101492.77;;;9.77;92.60
48404;BME280;34202;52.536;6.042;2023-04-15T09:03:29;101495.41;;;9.88;91.67
48404;BME280;34202;52.536;6.042;2023-04-15T09:08:29;101497.05;;;9.93;90.12
48404;BME280;34202;52.536;6.042;2023-04-15T09:13:30;101499.52;;;10.03;90.54
48404;BME280;34202;52.536;6.042;2023-04-15T09:18:31;101513.67;;;10.14;89.34
48404;BME280;34202;52.536;6.042;2023-04-15T09:23:32;101517.95;;;10.20;88.65
48404;BME280;34202;52.536;6.042;2023-04-15T09:28:33;101522.23;;;10.26;88.05
48404;BME280;34202;52.536;6.042;2023-04-15T09:33:53;101526.88;;;10.30;87.47
48404;BME280;34202;52.536;6.042;2023-04-15T09:38:54;101530.30;;;10.36;87.34
48404;BME280;34202;52.536;6.042;2023-04-15T09:43:55;101537.13;;;10.49;87.16
48404;BME280;34202;52.536;6.042;2023-04-15T09:49:08;101548.51;;;10.61;86.30
48404;BME280;34202;52.536;6.042;2023-04-15T09:54:09;101556.05;;;10.66;85.26
48404;BME280;34202;52.536;6.042;2023-04-15T09:59:09;101559.88;;;10.75;84.72
48404;BME280;34202;52.536;6.042;2023-04-15T10:04:10;101567.29;;;10.80;82.29
48404;BME280;34202;52.536;6.042;2023-04-15T10:09:11;101566.72;;;10.88;82.05
48404;BME280;34202;52.536;6.042;2023-04-15T10:14:12;101576.75;;;10.94;81.50
48404;BME280;34202;52.536;6.042;2023-04-15T10:19:15;101578.46;;;10.92;81.52
48404;BME280;34202;52.536;6.042;2023-04-15T10:24:18;101585.41;;;10.81;81.01
48404;BME280;34202;52.536;6.042;2023-04-15T10:29:19;101585.04;;;10.80;81.39
48404;BME280;34202;52.536;6.042;2023-04-15T10:34:19;101582.79;;;10.90;81.96
48404;BME280;34202;52.536;6.042;2023-04-15T10:44:34;101592.98;;;10.86;80.97
48404;BME280;34202;52.536;6.042;2023-04-15T10:49:35;101589.13;;;10.85;81.45
48404;BME280;34202;52.536;6.042;2023-04-15T10:54:41;101590.94;;;10.89;81.58
48404;BME280;34202;52.536;6.042;2023-04-15T11:05:03;101599.11;;;11.08;81.23
48404;BME280;34202;52.536;6.042;2023-04-15T11:10:49;101601.20;;;11.08;80.86
48404;BME280;34202;52.536;6.042;2023-04-15T11:15:26;101602.36;;;11.04;79.64
48404;BME280;34202;52.536;6.042;2023-04-15T11:20:26;101600.73;;;11.11;79.83
48404;BME280;34202;52.536;6.042;2023-04-15T11:25:28;101607.59;;;11.16;79.10
48404;BME280;34202;52.536;6.042;2023-04-15T11:30:30;101603.05;;;11.26;79.87
48404;BME280;34202;52.536;6.042;2023-04-15T11:35:31;101612.63;;;11.36;79.02
48404;BME280;34202;52.536;6.042;2023-04-15T11:40:31;101609.96;;;11.45;78.45
48404;BME280;34202;52.536;6.042;2023-04-15T11:45:35;101618.29;;;11.53;77.78
48404;BME280;34202;52.536;6.042;2023-04-15T11:50:36;101624.20;;;11.63;77.30
48404;BME280;34202;52.536;6.042;2023-04-15T11:55:40;101636.13;;;11.57;75.70
48404;BME280;34202;52.536;6.042;2023-04-15T12:00:52;101638.96;;;11.49;75.83
48404;BME280;34202;52.536;6.042;2023-04-15T12:06:02;101641.52;;;11.45;75.68
48404;BME280;34202;52.536;6.042;2023-04-15T12:11:03;101652.45;;;11.41;75.02
48404;BME280;34202;52.536;6.042;2023-04-15T12:16:03;101663.88;;;11.27;74.42
48404;BME280;34202;52.536;6.042;2023-04-15T12:21:10;101669.34;;;11.10;75.48
48404;BME280;34202;52.536;6.042;2023-04-15T12:26:11;101684.30;;;10.99;76.38
48404;BME280;34202;52.536;6.042;2023-04-15T12:31:11;101683.87;;;10.85;76.71
48404;BME280;34202;52.536;6.042;2023-04-15T12:36:13;101688.22;;;10.76;77.20
48404;BME280;34202;52.536;6.042;2023-04-15T12:41:13;101696.05;;;10.67;78.07
48404;BME280;34202;52.536;6.042;2023-04-15T12:46:13;101698.31;;;10.58;78.75
48404;BME280;34202;52.536;6.042;2023-04-15T12:51:14;101708.63;;;10.52;78.89
48404;BME280;34202;52.536;6.042;2023-04-15T12:56:15;101708.98;;;10.44;79.36
48404;BME280;34202;52.536;6.042;2023-04-15T13:01:16;101708.54;;;10.40;80.18
48404;BME280;34202;52.536;6.042;2023-04-15T13:06:16;101719.46;;;10.38;80.82
48404;BME280;34202;52.536;6.042;2023-04-15T13:11:16;101722.63;;;10.32;81.17
48404;BME280;34202;52.536;6.042;2023-04-15T13:16:17;101733.30;;;10.20;81.92
48404;BME280;34202;52.536;6.042;2023-04-15T13:21:17;101744.10;;;10.13;82.53
48404;BME280;34202;52.536;6.042;2023-04-15T13:26:18;101752.95;;;10.04;83.45
48404;BME280;34202;52.536;6.042;2023-04-15T13:31:18;101755.10;;;9.93;84.26
48404;BME280;34202;52.536;6.042;2023-04-15T13:36:18;101765.44;;;9.81;84.88
48404;BME280;34202;52.536;6.042;2023-04-15T13:41:19;101763.27;;;9.71;84.64
48404;BME280;34202;52.536;6.042;2023-04-15T13:46:20;101763.84;;;9.66;84.81
48404;BME280;34202;52.536;6.042;2023-04-15T13:51:20;101766.34;;;9.68;84.91
48404;BME280;34202;52.536;6.042;2023-04-15T13:56:20;101770.84;;;9.74;84.93
48404;BME280;34202;52.536;6.042;2023-04-15T14:01:21;101771.70;;;9.74;85.78
48404;BME280;34202;52.536;6.042;2023-04-15T14:06:21;101779.11;;;9.71;85.83
48404;BME280;34202;52.536;6.042;2023-04-15T14:11:22;101785.43;;;9.67;85.64
48404;BME280;34202;52.536;6.042;2023-04-15T14:16:22;101795.41;;;9.63;85.79
48404;BME280;34202;52.536;6.042;2023-04-15T14:21:22;101803.23;;;9.64;86.01
48404;BME280;34202;52.536;6.042;2023-04-15T14:26:23;101804.45;;;9.70;86.19
48404;BME280;34202;52.536;6.042;2023-04-15T14:31:23;101809.59;;;9.74;86.25
48404;BME280;34202;52.536;6.042;2023-04-15T14:36:23;101816.14;;;9.72;86.45
48404;BME280;34202;52.536;6.042;2023-04-15T14:41:23;101821.63;;;9.69;87.02
48404;BME280;34202;52.536;6.042;2023-04-15T14:46:24;101833.50;;;9.64;86.87
48404;BME280;34202;52.536;6.042;2023-04-15T14:51:25;101831.36;;;9.56;87.08
48404;BME280;34202;52.536;6.042;2023-04-15T14:56:25;101838.52;;;9.51;87.07
48404;BME280;34202;52.536;6.042;2023-04-15T15:01:26;101844.23;;;9.43;87.66
48404;BME280;34202;52.536;6.042;2023-04-15T15:06:27;101850.73;;;9.39;88.21
48404;BME280;34202;52.536;6.042;2023-04-15T15:11:27;101849.63;;;9.37;88.42
48404;BME280;34202;52.536;6.042;2023-04-15T15:16:28;101850.66;;;9.37;88.49
48404;BME280;34202;52.536;6.042;2023-04-15T15:21:28;101857.02;;;9.35;88.78
48404;BME280;34202;52.536;6.042;2023-04-15T15:26:30;101860.05;;;9.31;89.04
48404;BME280;34202;52.536;6.042;2023-04-15T15:31:30;101873.88;;;9.28;89.56
48404;BME280;34202;52.536;6.042;2023-04-15T15:36:30;101873.34;;;9.22;89.48
48404;BME280;34202;52.536;6.042;2023-04-15T15:41:31;101877.90;;;9.17;90.14
48404;BME280;34202;52.536;6.042;2023-04-15T15:46:32;101888.06;;;9.15;90.64
48404;BME280;34202;52.536;6.042;2023-04-15T15:51:32;101895.98;;;9.06;90.84
48404;BME280;34202;52.536;6.042;2023-04-15T15:56:33;101898.88;;;8.99;91.23
48404;BME280;34202;52.536;6.042;2023-04-15T16:01:34;101902.73;;;8.94;91.48
48404;BME280;34202;52.536;6.042;2023-04-15T16:06:34;101907.02;;;8.93;91.62
48404;BME280;34202;52.536;6.042;2023-04-15T16:11:35;101914.75;;;8.89;92.05
48404;BME280;34202;52.536;6.042;2023-04-15T16:16:35;101917.41;;;8.86;92.62
48404;BME280;34202;52.536;6.042;2023-04-15T16:21:35;101925.98;;;8.82;93.05
48404;BME280;34202;52.536;6.042;2023-04-15T16:26:36;101928.75;;;8.77;92.82
48404;BME280;34202;52.536;6.042;2023-04-15T16:31:36;101931.43;;;8.73;93.29
48404;BME280;34202;52.536;6.042;2023-04-15T16:36:38;101934.36;;;8.67;93.30
48404;BME280;34202;52.536;6.042;2023-04-15T16:41:39;101941.36;;;8.63;93.71
48404;BME280;34202;52.536;6.042;2023-04-15T16:46:41;101939.12;;;8.59;93.78
48404;BME280;34202;52.536;6.042;2023-04-15T16:51:41;101941.99;;;8.56;94.15
48404;BME280;34202;52.536;6.042;2023-04-15T16:56:42;101951.93;;;8.53;94.25
48404;BME280;34202;52.536;6.042;2023-04-15T17:01:42;101958.84;;;8.51;94.25
48404;BME280;34202;52.536;6.042;2023-04-15T17:06:42;101966.26;;;8.50;95.13
48404;BME280;34202;52.536;6.042;2023-04-15T17:11:42;101965.80;;;8.47;94.94
48404;BME280;34202;52.536;6.042;2023-04-15T17:16:43;101973.42;;;8.46;95.23
48404;BME280;34202;52.536;6.042;2023-04-15T17:21:43;101976.44;;;8.44;96.14
48404;BME280;34202;52.536;6.042;2023-04-15T17:26:44;101982.21;;;8.41;96.23
48404;BME280;34202;52.536;6.042;2023-04-15T17:31:46;101986.34;;;8.39;96.19
48404;BME280;34202;52.536;6.042;2023-04-15T17:36:46;101993.05;;;8.38;96.70
48404;BME280;34202;52.536;6.042;2023-04-15T17:41:46;101996.44;;;8.35;97.18
48404;BME280;34202;52.536;6.042;2023-04-15T17:46:47;101996.30;;;8.31;97.60
48404;BME280;34202;52.536;6.042;2023-04-15T17:51:47;101997.42;;;8.28;97.70
48404;BME280;34202;52.536;6.042;2023-04-15T17:56:47;102003.19;;;8.25;98.05
48404;BME280;34202;52.536;6.042;2023-04-15T18:01:48;102009.86;;;8.23;98.43
48404;BME280;34202;52.536;6.042;2023-04-15T18:06:48;102019.77;;;8.18;98.59
48404;BME280;34202;52.536;6.042;2023-04-15T18:11:48;102026.73;;;8.14;99.17
48404;BME280;34202;52.536;6.042;2023-04-15T18:16:50;102035.20;;;8.08;99.62
48404;BME280;34202;52.536;6.042;2023-04-15T18:21:50;102044.66;;;8.02;99.99
48404;BME280;34202;52.536;6.042;2023-04-15T18:26:51;102046.87;;;7.95;100.00
48404;BME280;34202;52.536;6.042;2023-04-15T18:31:52;102053.79;;;7.90;100.00
48404;BME280;34202;52.536;6.042;2023-04-15T18:36:52;102059.09;;;7.88;100.00
48404;BME280;34202;52.536;6.042;2023-04-15T18:41:52;102064.65;;;7.88;100.00
48404;BME280;34202;52.536;6.042;2023-04-15T18:46:53;102073.24;;;7.86;100.00
48404;BME280;34202;52.536;6.042;2023-04-15T18:51:53;102082.88;;;7.84;100.00
48404;BME280;34202;52.536;6.042;2023-04-15T18:56:53;102085.78;;;7.79;100.00
48404;BME280;34202;52.536;6.042;2023-04-15T19:01:54;102093.95;;;7.75;100.00
48404;BME280;34202;52.536;6.042;2023-04-15T19:06:54;102099.06;;;7.73;100.00
48404;BME280;34202;52.536;6.042;2023-04-15T19:11:55;102103.77;;;7.69;100.00
48404;BME280;34202;52.536;6.042;2023-04-15T19:16:55;102105.40;;;7.66;100.00
48404;BME280;34202;52.536;6.042;2023-04-15T19:21:56;102111.85;;;7.63;100.00
48404;BME280;34202;52.536;6.042;2023-04-15T19:26:56;102116.63;;;7.61;100.00
48404;BME280;34202;52.536;6.042;2023-04-15T19:31:56;102112.97;;;7.60;100.00
48404;BME280;34202;52.536;6.042;2023-04-15T19:36:57;102115.43;;;7.62;100.00
48404;BME280;34202;52.536;6.042;2023-04-15T19:41:57;102123.80;;;7.63;100.00
48404;BME280;34202;52.536;6.042;2023-04-15T19:46:58;102130.58;;;7.63;100.00
48404;BME280;34202;52.536;6.042;2023-04-15T19:51:58;102131.85;;;7.65;100.00
48404;BME280;34202;52.536;6.042;2023-04-15T19:56:58;102133.45;;;7.66;100.00
48404;BME280;34202;52.536;6.042;2023-04-15T20:01:59;102134.41;;;7.68;100.00
48404;BME280;34202;52.536;6.042;2023-04-15T20:06:59;102127.93;;;7.71;100.00
48404;BME280;34202;52.536;6.042;2023-04-15T20:11:59;102122.66;;;7.73;100.00
48404;BME280;34202;52.536;6.042;2023-04-15T20:16:59;102118.70;;;7.74;100.00
48404;BME280;34202;52.536;6.042;2023-04-15T20:22:00;102118.90;;;7.75;100.00
48404;BME280;34202;52.536;6.042;2023-04-15T20:27:00;102124.62;;;7.75;100.00
48404;BME280;34202;52.536;6.042;2023-04-15T20:32:00;102123.70;;;7.73;100.00
48404;BME280;34202;52.536;6.042;2023-04-15T20:37:01;102125.76;;;7.73;100.00
48404;BME280;34202;52.536;6.042;2023-04-15T20:42:01;102128.35;;;7.73;100.00
48404;BME280;34202;52.536;6.042;2023-04-15T20:47:02;102137.02;;;7.72;100.00
48404;BME280;34202;52.536;6.042;2023-04-15T20:52:03;102138.96;;;7.74;100.00
48404;BME280;34202;52.536;6.042;2023-04-15T20:57:04;102138.95;;;7.73;100.00
48404;BME280;34202;52.536;6.042;2023-04-15T21:02:04;102142.55;;;7.72;100.00
48404;BME280;34202;52.536;6.042;2023-04-15T21:07:04;102141.85;;;7.72;100.00
48404;BME280;34202;52.536;6.042;2023-04-15T21:12:04;102146.38;;;7.73;100.00
48404;BME280;34202;52.536;6.042;2023-04-15T21:17:05;102150.52;;;7.72;100.00
48404;BME280;34202;52.536;6.042;2023-04-15T21:22:06;102156.73;;;7.72;100.00
48404;BME280;34202;52.536;6.042;2023-04-15T21:27:06;102157.54;;;7.70;100.00
48404;BME280;34202;52.536;6.042;2023-04-15T21:32:06;102164.10;;;7.69;100.00
48404;BME280;34202;52.536;6.042;2023-04-15T21:37:06;102168.09;;;7.69;100.00
48404;BME280;34202;52.536;6.042;2023-04-15T21:42:07;102175.80;;;7.72;100.00
48404;BME280;34202;52.536;6.042;2023-04-15T21:47:07;102169.77;;;7.72;100.00
48404;BME280;34202;52.536;6.042;2023-04-15T21:52:07;102167.01;;;7.73;100.00
48404;BME280;34202;52.536;6.042;2023-04-15T21:57:07;102171.23;;;7.75;100.00
48404;BME280;34202;52.536;6.042;2023-04-15T22:02:08;102181.09;;;7.74;100.00
48404;BME280;34202;52.536;6.042;2023-04-15T22:07:08;102185.21;;;7.73;100.00
48404;BME280;34202;52.536;6.042;2023-04-15T22:12:08;102191.31;;;7.74;100.00
48404;BME280;34202;52.536;6.042;2023-04-15T22:17:08;102189.42;;;7.75;100.00
48404;BME280;34202;52.536;6.042;2023-04-15T22:22:09;102181.68;;;7.76;100.00
48404;BME280;34202;52.536;6.042;2023-04-15T22:27:09;102186.20;;;7.77;100.00
48404;BME280;34202;52.536;6.042;2023-04-15T22:32:09;102186.25;;;7.78;100.00
48404;BME280;34202;52.536;6.042;2023-04-15T22:37:09;102182.50;;;7.79;100.00
48404;BME280;34202;52.536;6.042;2023-04-15T22:42:10;102185.64;;;7.80;100.00
48404;BME280;34202;52.536;6.042;2023-04-15T22:47:11;102188.83;;;7.81;100.00
48404;BME280;34202;52.536;6.042;2023-04-15T22:52:11;102192.77;;;7.85;100.00
48404;BME280;34202;52.536;6.042;2023-04-15T22:57:11;102192.51;;;7.87;100.00
48404;BME280;34202;52.536;6.042;2023-04-15T23:02:11;102199.00;;;7.89;100.00
48404;BME280;34202;52.536;6.042;2023-04-15T23:07:12;102207.38;;;7.90;100.00
48404;BME280;34202;52.536;6.042;2023-04-15T23:12:12;102215.13;;;7.89;100.00
48404;BME280;34202;52.536;6.042;2023-04-15T23:17:12;102216.64;;;7.88;100.00
48404;BME280;34202;52.536;6.042;2023-04-15T23:22:13;102215.63;;;7.88;100.00
48404;BME280;34202;52.536;6.042;2023-04-15T23:27:13;102217.88;;;7.88;100.00
48404;BME280;34202;52.536;6.042;2023-04-15T23:32:13;102227.08;;;7.88;100.00
48404;BME280;34202;52.536;6.042;2023-04-15T23:37:15;102231.94;;;7.89;100.00
48404;BME280;34202;52.536;6.042;2023-04-15T23:42:15;102231.44;;;7.89;100.00
48404;BME280;34202;52.536;6.042;2023-04-15T23:47:16;102235.05;;;7.88;100.00
48404;BME280;34202;52.536;6.042;2023-04-15T23:52:16;102235.73;;;7.88;100.00
48404;BME280;34202;52.536;6.042;2023-04-15T23:57:16;102239.55;;;7.89;100.00
